Athens, Georgia
Current Conditions -  °F | °C
As of 11:51 PM on Sunday 21 Dec 2014 (Local Time) from KAHN Reporting Station
Light Rain Light Rain  
Wind Chill: 41°   Ceiling: 900
Heat Index: 46°   Visibility: 4mi
Dew Point: 44°   Wind: 9mph
Humidity: 93%   Direction: 50°NE
Pressure: 30.13"   Gusts: NA
Location:  33.96°N, 83.37°W
Report Text: KAHN 220451Z AUTO 05008KT 4SM -RA BR BKN009 OVC013 08/07 A3013 RMK AO2 RAE26B48 CIG 007V011 SLP207 P0000 T00780067 401060061
Loading
Personal Weather Stations






























Interactive Weather Map New forecast layout! Learn more

10-Day Weather Forecast

Advertisements
Track Severe Weather on mobile